Rodney, Michigan
Current Conditions -  °F | °C
As of 10:14 PM on Monday 26 Jan 2015 (Local Time) from KRQB Reporting Station
Overcast Overcast  
Wind Chill:   Ceiling: 6000
Heat Index: 18°   Visibility: 10mi
Dew Point: 11°   Wind: 6mph
Humidity: 77%   Direction: 100°E
Pressure: 29.96"   Gusts: NA
Location:  43.67°N, 85.33°W
Report Text: KRQB 270314Z AUTO 10005KT 10SM OVC060 M08/M11 A2996 RMK AO2 T10801114
Loading
Personal Weather Stations






























Interactive Weather Map New forecast layout! Learn more

10-Day Weather Forecast

Advertisements
Track Severe Weather on mobile